createdAt,value
2023-04-17T00:01:30.928Z,71.12
2023-04-17T00:03:58.881Z,71.55
2023-04-17T00:06:27.544Z,71.38
2023-04-17T00:08:55.424Z,71.05
2023-04-17T00:11:23.200Z,71.79
2023-04-17T00:13:50.927Z,71.51
2023-04-17T00:16:18.911Z,71.50
2023-04-17T00:18:46.691Z,71.55
2023-04-17T00:21:14.611Z,70.71
2023-04-17T00:23:42.490Z,71.05
2023-04-17T00:26:10.225Z,71.19
2023-04-17T00:28:40.024Z,71.04
2023-04-17T00:31:09.669Z,70.79
2023-04-17T00:33:37.526Z,71.54
2023-04-17T00:36:06.272Z,71.50
2023-04-17T00:38:34.002Z,71.38
2023-04-17T00:41:02.875Z,71.17
2023-04-17T00:43:30.842Z,70.96
2023-04-17T00:45:59.783Z,71.98
2023-04-17T00:48:27.671Z,71.41
2023-04-17T00:51:03.513Z,71.76
2023-04-17T00:53:35.844Z,71.56
2023-04-17T00:56:08.004Z,71.11
2023-04-17T00:58:38.568Z,72.48
2023-04-17T01:01:07.341Z,71.96
2023-04-17T01:03:35.398Z,71.82
2023-04-17T01:06:03.997Z,72.06
2023-04-17T01:08:42.850Z,71.57
2023-04-17T01:11:11.909Z,71.90
2023-04-17T01:13:50.870Z,71.50
2023-04-17T01:16:20.349Z,71.69
2023-04-17T01:18:51.519Z,72.66
2023-04-17T01:21:19.334Z,71.97
2023-04-17T01:23:53.338Z,72.26
2023-04-17T01:26:24.385Z,72.71
2023-04-17T01:28:58.276Z,72.70
2023-04-17T01:31:29.077Z,72.70
2023-04-17T01:33:56.958Z,72.28
2023-04-17T01:36:24.750Z,73.55
2023-04-17T01:38:52.466Z,73.98
2023-04-17T01:41:20.243Z,73.23
2023-04-17T01:43:48.287Z,73.55
2023-04-17T01:46:16.190Z,73.27
2023-04-17T01:48:44.058Z,73.72
2023-04-17T01:51:11.856Z,73.58
2023-04-17T01:53:40.496Z,73.45
2023-04-17T01:56:08.594Z,74.27
2023-04-17T01:58:36.367Z,73.96
2023-04-17T02:01:04.598Z,73.83
2023-04-17T02:03:34.254Z,74.28
2023-04-17T02:06:04.038Z,73.47
2023-04-17T02:08:34.446Z,73.23
2023-04-17T02:11:02.466Z,73.94
2023-04-17T02:13:32.101Z,74.51
2023-04-17T02:15:59.896Z,74.90
2023-04-17T02:18:28.578Z,74.62
2023-04-17T02:20:56.365Z,75.04
2023-04-17T02:23:24.101Z,75.11
2023-04-17T02:25:51.927Z,75.58
2023-04-17T02:28:21.654Z,76.08
2023-04-17T02:30:51.194Z,76.34
2023-04-17T02:33:19.018Z,75.62
2023-04-17T02:35:46.840Z,76.30
2023-04-17T02:38:14.745Z,75.48
2023-04-17T02:40:46.422Z,75.36
2023-04-17T02:43:16.107Z,75.59
2023-04-17T02:45:43.847Z,75.48
2023-04-17T02:48:11.579Z,75.81
2023-04-17T02:50:41.155Z,75.54
2023-04-17T02:53:09.695Z,76.16
2023-04-17T02:55:39.261Z,76.13
2023-04-17T02:58:08.935Z,75.57
2023-04-17T03:00:36.703Z,75.47
2023-04-17T03:03:05.076Z,75.25
2023-04-17T03:05:33.851Z,75.68
2023-04-17T03:08:03.647Z,76.17
2023-04-17T03:10:33.257Z,75.75
2023-04-17T03:13:01.109Z,76.08
2023-04-17T03:15:28.865Z,76.00
2023-04-17T03:17:58.564Z,76.35
2023-04-17T03:20:28.174Z,76.19
2023-04-17T03:22:57.830Z,76.53
2023-04-17T03:25:27.505Z,76.09
2023-04-17T03:27:57.225Z,76.63
2023-04-17T03:30:26.524Z,77.03
2023-04-17T03:32:54.346Z,76.53
2023-04-17T03:35:22.891Z,76.12
2023-04-17T03:37:50.780Z,76.70
2023-04-17T03:40:19.559Z,76.70
2023-04-17T03:42:47.371Z,77.52
2023-04-17T03:45:17.121Z,76.55
2023-04-17T03:47:45.291Z,76.65
2023-04-17T03:50:13.275Z,76.72
2023-04-17T03:52:41.317Z,76.81
2023-04-17T03:55:10.136Z,76.72
2023-04-17T03:57:39.650Z,76.66
2023-04-17T04:00:10.875Z,76.69
2023-04-17T04:02:39.024Z,76.63
2023-04-17T04:05:09.130Z,76.53
2023-04-17T04:07:37.823Z,76.88
2023-04-17T04:10:08.589Z,76.48
2023-04-17T04:12:37.284Z,76.42
2023-04-17T04:15:07.256Z,76.30
2023-04-17T04:17:35.094Z,76.29
2023-04-17T04:20:03.039Z,76.09
2023-04-17T04:22:30.941Z,76.67
2023-04-17T04:24:59.536Z,76.73
2023-04-17T04:27:27.947Z,76.97
2023-04-17T04:29:59.093Z,77.27
2023-04-17T04:32:28.384Z,77.93
2023-04-17T04:34:58.776Z,77.85
2023-04-17T04:37:30.337Z,77.69
2023-04-17T04:40:02.859Z,77.58
2023-04-17T04:42:31.631Z,77.22
2023-04-17T04:44:59.453Z,77.37
2023-04-17T04:47:27.545Z,77.63
2023-04-17T04:49:55.856Z,77.81
2023-04-17T04:52:24.557Z,77.75
2023-04-17T04:54:54.422Z,76.71
2023-04-17T04:57:22.181Z,76.94
2023-04-17T04:59:49.987Z,76.45
2023-04-17T05:02:17.976Z,76.86
2023-04-17T05:04:46.139Z,76.56
2023-04-17T05:07:14.174Z,76.96
2023-04-17T05:09:43.690Z,76.36
2023-04-17T05:12:12.205Z,76.46
2023-04-17T05:14:40.828Z,75.28
2023-04-17T05:17:09.501Z,75.42
2023-04-17T05:19:37.303Z,74.44
2023-04-17T05:22:05.197Z,74.58
2023-04-17T05:24:32.988Z,73.39
2023-04-17T05:27:02.324Z,72.18
2023-04-17T05:29:32.979Z,71.87
2023-04-17T05:32:01.729Z,69.95
2023-04-17T05:34:29.630Z,70.33
2023-04-17T05:36:57.530Z,68.88
2023-04-17T05:39:25.341Z,67.71
2023-04-17T05:41:53.945Z,66.36
2023-04-17T05:44:22.477Z,64.32
2023-04-17T05:46:50.257Z,61.66
2023-04-17T05:49:18.058Z,62.55
2023-04-17T05:51:46.843Z,61.41
2023-04-17T05:54:16.428Z,60.99
2023-04-17T05:56:44.371Z,60.42
2023-04-17T05:59:12.998Z,62.51
2023-04-17T06:01:41.793Z,63.67
2023-04-17T06:04:11.799Z,65.18
2023-04-17T06:06:40.680Z,65.73
2023-04-17T06:09:10.019Z,64.17
2023-04-17T06:11:38.765Z,63.67
2023-04-17T06:14:08.370Z,64.45
2023-04-17T06:16:36.982Z,65.04
2023-04-17T06:19:05.766Z,65.28
2023-04-17T06:21:34.293Z,65.04
2023-04-17T06:24:02.927Z,65.56
2023-04-17T06:26:32.514Z,65.15
2023-04-17T06:29:01.491Z,63.44
2023-04-17T06:31:29.414Z,62.84
2023-04-17T06:33:58.229Z,62.95
2023-04-17T06:36:26.391Z,64.08
2023-04-17T06:38:54.247Z,64.00
2023-04-17T06:41:22.774Z,62.63
2023-04-17T06:43:50.561Z,64.14
2023-04-17T06:46:21.481Z,63.68
2023-04-17T06:48:52.538Z,63.94
2023-04-17T06:51:22.046Z,65.22
2023-04-17T06:53:49.835Z,64.44
2023-04-17T06:56:19.780Z,64.42
2023-04-17T06:58:48.376Z,64.55
2023-04-17T07:01:16.352Z,64.17
2023-04-17T07:03:44.720Z,64.11
2023-04-17T07:06:12.796Z,63.89
2023-04-17T07:08:42.491Z,63.82
2023-04-17T07:11:12.094Z,64.75
2023-04-17T07:13:40.658Z,63.77
2023-04-17T07:16:09.286Z,63.49
2023-04-17T07:18:37.953Z,63.58
2023-04-17T07:21:07.555Z,62.91
2023-04-17T07:23:38.818Z,62.62
2023-04-17T07:26:07.594Z,63.08
2023-04-17T07:28:37.554Z,63.01
2023-04-17T07:31:08.965Z,61.99
2023-04-17T07:33:40.405Z,62.99
2023-04-17T07:36:12.053Z,62.50
2023-04-17T07:38:41.397Z,62.39
2023-04-17T07:41:09.317Z,63.24
2023-04-17T07:43:37.070Z,62.18
2023-04-17T07:46:05.149Z,63.31
2023-04-17T07:48:32.953Z,63.62
2023-04-17T07:51:01.748Z,63.76
2023-04-17T07:53:31.298Z,63.44
2023-04-17T07:56:01.002Z,60.25
2023-04-17T07:58:28.870Z,61.47
2023-04-17T08:00:58.044Z,60.64
2023-04-17T08:03:26.129Z,61.32
2023-04-17T08:05:54.395Z,62.73
2023-04-17T08:08:24.736Z,63.44
2023-04-17T08:10:54.363Z,62.77
2023-04-17T08:13:26.345Z,63.10
2023-04-17T08:15:54.866Z,63.25
2023-04-17T08:18:22.700Z,62.95
2023-04-17T08:20:50.416Z,63.20
2023-04-17T08:23:22.940Z,63.32
2023-04-17T08:25:50.886Z,63.68
2023-04-17T08:28:18.673Z,63.60
2023-04-17T08:30:46.653Z,64.05
2023-04-17T08:33:17.146Z,63.86
2023-04-17T08:35:45.908Z,64.22
2023-04-17T08:38:17.181Z,63.34
2023-04-17T08:40:52.306Z,63.18
2023-04-17T08:43:21.387Z,63.20
2023-04-17T08:45:54.312Z,62.02
2023-04-17T08:48:24.609Z,62.05
2023-04-17T08:50:55.229Z,60.62
2023-04-17T08:53:24.764Z,60.79
2023-04-17T08:55:52.514Z,60.24
2023-04-17T08:58:28.472Z,59.16
2023-04-17T09:01:13.009Z,58.81
2023-04-17T09:03:49.920Z,58.62
2023-04-17T09:06:18.137Z,58.19
2023-04-17T09:09:04.189Z,58.33
2023-04-17T09:11:31.988Z,58.53
2023-04-17T09:14:02.471Z,59.00
2023-04-17T09:16:30.469Z,59.71
2023-04-17T09:19:08.098Z,59.82
2023-04-17T09:21:37.578Z,58.68
2023-04-17T09:24:07.808Z,58.91
2023-04-17T09:26:36.066Z,57.57
2023-04-17T09:29:14.117Z,56.50
2023-04-17T09:31:44.700Z,56.87
2023-04-17T09:34:16.723Z,58.39
2023-04-17T09:36:45.413Z,57.99
2023-04-17T09:39:24.704Z,58.39
2023-04-17T09:42:06.498Z,59.16
2023-04-17T09:44:38.163Z,59.25
2023-04-17T09:47:08.402Z,58.03
2023-04-17T09:49:53.691Z,58.27
2023-04-17T09:52:24.329Z,56.67
2023-04-17T09:54:54.044Z,57.70
2023-04-17T09:57:23.799Z,58.01
2023-04-17T09:59:52.641Z,58.14
2023-04-17T10:02:23.016Z,57.34
2023-04-17T10:04:51.617Z,56.97
2023-04-17T10:07:19.341Z,57.22
2023-04-17T10:09:48.042Z,58.21
2023-04-17T10:12:19.670Z,58.41
2023-04-17T10:14:52.562Z,58.14
2023-04-17T10:17:33.389Z,57.75
2023-04-17T10:20:20.312Z,56.70
2023-04-17T10:22:56.480Z,58.31
2023-04-17T10:25:29.269Z,58.21
2023-04-17T10:28:03.595Z,59.14
2023-04-17T10:30:55.187Z,59.27
2023-04-17T10:33:28.174Z,61.30
2023-04-17T10:35:56.338Z,62.24
2023-04-17T10:38:36.128Z,61.14
2023-04-17T10:41:12.197Z,61.31
2023-04-17T10:43:45.697Z,60.98
2023-04-17T10:46:15.919Z,61.21
2023-04-17T10:48:56.595Z,61.49
2023-04-17T10:51:24.682Z,60.64
2023-04-17T10:54:05.674Z,62.17
2023-04-17T10:56:40.348Z,61.98
2023-04-17T10:59:17.424Z,62.98
2023-04-17T11:01:48.677Z,62.18
2023-04-17T11:04:31.154Z,62.08
2023-04-17T11:06:59.652Z,62.55
2023-04-17T11:09:29.846Z,61.55
2023-04-17T11:12:03.104Z,61.80
2023-04-17T11:14:32.527Z,63.02
2023-04-17T11:17:02.466Z,62.96
2023-04-17T11:19:32.421Z,63.18
2023-04-17T11:22:02.856Z,62.63
2023-04-17T11:24:34.993Z,63.17
2023-04-17T11:27:04.058Z,63.27
2023-04-17T11:29:33.636Z,63.27
2023-04-17T11:32:03.765Z,63.17
2023-04-17T11:34:31.665Z,62.82
2023-04-17T11:37:01.591Z,63.70
2023-04-17T11:39:34.653Z,63.56
2023-04-17T11:42:05.446Z,62.28
2023-04-17T11:44:35.445Z,62.13
2023-04-17T11:47:04.183Z,61.66
2023-04-17T11:49:39.081Z,62.28
2023-04-17T11:52:07.431Z,61.13
2023-04-17T11:54:39.663Z,61.98
2023-04-17T11:57:14.624Z,61.06
2023-04-17T11:59:45.696Z,60.78
2023-04-17T12:02:15.442Z,60.42
2023-04-17T12:04:43.486Z,60.67
2023-04-17T12:07:26.366Z,60.40
2023-04-17T12:09:58.422Z,60.97
2023-04-17T12:12:26.192Z,61.64
2023-04-17T12:14:54.847Z,61.94
2023-04-17T12:17:24.419Z,62.25
2023-04-17T12:19:52.691Z,62.86
2023-04-17T12:22:22.314Z,63.06
2023-04-17T12:24:50.103Z,63.17
2023-04-17T12:27:18.033Z,63.11
2023-04-17T12:29:45.823Z,62.19
2023-04-17T12:32:13.722Z,63.55
2023-04-17T12:34:41.548Z,64.01
2023-04-17T12:37:11.812Z,63.18
2023-04-17T12:39:41.528Z,63.61
2023-04-17T12:42:10.270Z,63.42
2023-04-17T12:44:39.843Z,64.37
2023-04-17T12:47:08.507Z,63.14
2023-04-17T12:49:37.219Z,64.32
2023-04-17T12:52:06.787Z,64.17
2023-04-17T12:54:35.434Z,63.91
2023-04-17T12:57:06.837Z,64.35
2023-04-17T12:59:36.354Z,64.63
2023-04-17T13:02:04.226Z,65.37
2023-04-17T13:04:32.299Z,66.69
2023-04-17T13:07:00.948Z,67.63
2023-04-17T13:09:29.492Z,69.59
2023-04-17T13:11:58.070Z,69.34
2023-04-17T13:14:26.115Z,69.00
2023-04-17T13:16:54.224Z,68.90
2023-04-17T13:19:24.284Z,69.66
2023-04-17T13:21:53.897Z,67.34
2023-04-17T13:24:22.509Z,67.34
2023-04-17T13:26:51.128Z,67.35
2023-04-17T13:29:21.031Z,66.09
2023-04-17T13:31:50.934Z,66.59
2023-04-17T13:34:20.726Z,65.82
2023-04-17T13:36:50.461Z,66.19
2023-04-17T13:39:20.459Z,64.51
2023-04-17T13:41:48.654Z,64.88
2023-04-17T13:44:17.752Z,65.38
2023-04-17T13:46:46.482Z,64.93
2023-04-17T13:49:16.234Z,62.64
2023-04-17T13:51:45.817Z,62.50
2023-04-17T13:54:15.440Z,62.12
2023-04-17T13:56:46.155Z,62.50
2023-04-17T13:59:16.222Z,61.82
2023-04-17T14:01:44.006Z,61.57
2023-04-17T14:04:12.131Z,60.99
2023-04-17T14:06:43.949Z,61.05
2023-04-17T14:09:12.427Z,59.89
2023-04-17T14:11:41.344Z,59.34
2023-04-17T14:14:10.520Z,58.46
2023-04-17T14:16:42.558Z,57.51
2023-04-17T14:19:14.157Z,57.18
2023-04-17T14:21:45.874Z,56.68
2023-04-17T14:24:13.644Z,56.98
2023-04-17T14:26:42.283Z,57.89
2023-04-17T14:29:14.250Z,59.03
2023-04-17T14:31:42.426Z,58.56
2023-04-17T14:34:10.222Z,59.66
2023-04-17T14:36:38.093Z,60.20
2023-04-17T14:39:07.258Z,61.39
2023-04-17T14:41:36.122Z,60.98
2023-04-17T14:44:06.810Z,60.22
2023-04-17T14:46:35.654Z,60.37
2023-04-17T14:49:05.461Z,60.61
2023-04-17T14:51:34.003Z,60.94
2023-04-17T14:54:02.588Z,61.03
2023-04-17T14:56:30.637Z,61.61
2023-04-17T14:58:59.268Z,61.72
2023-04-17T15:01:27.873Z,62.21
2023-04-17T15:03:56.936Z,61.90
2023-04-17T15:06:26.356Z,62.16
2023-04-17T15:08:54.181Z,61.74
2023-04-17T15:11:22.909Z,60.87
2023-04-17T15:13:50.787Z,61.18
2023-04-17T15:16:20.461Z,60.82
2023-04-17T15:18:51.391Z,59.33
2023-04-17T15:21:20.056Z,59.50
2023-04-17T15:23:47.867Z,59.45
2023-04-17T15:26:18.444Z,60.44
2023-04-17T15:28:46.447Z,60.68
2023-04-17T15:31:14.208Z,60.40
2023-04-17T15:33:47.582Z,60.40
2023-04-17T15:36:16.800Z,61.31
2023-04-17T15:38:46.365Z,61.71
2023-04-17T15:41:14.306Z,61.71
2023-04-17T15:43:43.838Z,62.59
2023-04-17T15:46:11.861Z,63.23
2023-04-17T15:48:39.693Z,62.88
2023-04-17T15:51:07.608Z,62.78
2023-04-17T15:53:35.537Z,63.30
2023-04-17T15:56:03.369Z,63.31
2023-04-17T15:58:31.189Z,63.14
2023-04-17T16:01:00.741Z,63.75
2023-04-17T16:03:30.328Z,64.05
2023-04-17T16:05:58.933Z,64.70
2023-04-17T16:08:28.520Z,65.50
2023-04-17T16:10:58.086Z,64.92
2023-04-17T16:13:26.643Z,65.98
2023-04-17T16:15:54.511Z,65.41
2023-04-17T16:18:25.023Z,65.74
2023-04-17T16:20:53.591Z,66.13
2023-04-17T16:23:22.354Z,65.92
2023-04-17T16:25:51.503Z,66.78
2023-04-17T16:28:20.156Z,66.11
2023-04-17T16:30:49.672Z,66.00
2023-04-17T16:33:18.427Z,66.38
2023-04-17T16:35:47.106Z,66.91
2023-04-17T16:38:15.832Z,67.43
2023-04-17T16:40:44.537Z,68.06
2023-04-17T16:43:14.043Z,68.21
2023-04-17T16:45:42.780Z,68.58
2023-04-17T16:48:11.651Z,68.55
2023-04-17T16:50:41.175Z,69.45
2023-04-17T16:53:09.517Z,69.28
2023-04-17T16:55:38.321Z,69.16
2023-04-17T16:58:07.829Z,69.63
2023-04-17T17:00:36.926Z,69.32
2023-04-17T17:03:05.763Z,69.29
2023-04-17T17:05:34.552Z,69.34
2023-04-17T17:08:03.363Z,68.68
2023-04-17T17:10:33.707Z,68.98
2023-04-17T17:13:02.457Z,68.98
2023-04-17T17:15:31.213Z,70.01
2023-04-17T17:18:00.801Z,70.35
2023-04-17T17:20:29.491Z,70.66
2023-04-17T17:22:58.258Z,71.35
2023-04-17T17:25:26.925Z,72.21
2023-04-17T17:27:55.703Z,72.43
2023-04-17T17:30:24.637Z,72.26
2023-04-17T17:32:53.504Z,72.03
2023-04-17T17:35:22.925Z,72.57
2023-04-17T17:37:52.734Z,72.67
2023-04-17T17:40:21.351Z,72.55
2023-04-17T17:42:50.009Z,73.41
2023-04-17T17:45:19.172Z,73.62
2023-04-17T17:47:47.799Z,73.28
2023-04-17T17:50:15.635Z,73.91
2023-04-17T17:52:44.168Z,74.53
2023-04-17T17:55:16.460Z,75.35
2023-04-17T17:57:49.768Z,76.07
2023-04-17T18:00:19.385Z,76.83
2023-04-17T18:02:48.208Z,77.12
2023-04-17T18:05:17.888Z,77.57
2023-04-17T18:07:46.571Z,77.74
2023-04-17T18:10:15.384Z,77.71
2023-04-17T18:12:45.091Z,77.94
2023-04-17T18:15:13.856Z,77.58
2023-04-17T18:17:41.683Z,77.91
2023-04-17T18:20:10.556Z,78.00
2023-04-17T18:22:39.272Z,78.98
2023-04-17T18:25:08.819Z,79.14
2023-04-17T18:27:37.004Z,79.05
2023-04-17T18:30:10.065Z,79.20
2023-04-17T18:32:38.831Z,79.33
2023-04-17T18:35:08.437Z,80.81
2023-04-17T18:37:37.836Z,80.49
2023-04-17T18:40:10.667Z,80.42
2023-04-17T18:42:39.341Z,80.37
2023-04-17T18:45:13.835Z,80.57
2023-04-17T18:47:42.684Z,80.67
2023-04-17T18:50:12.094Z,80.80
2023-04-17T18:52:46.803Z,80.96
2023-04-17T18:55:18.414Z,80.60
2023-04-17T18:57:47.068Z,81.05
2023-04-17T19:00:18.696Z,81.36
2023-04-17T19:02:47.970Z,82.08
2023-04-17T19:05:16.118Z,82.17
2023-04-17T19:07:44.775Z,81.55
2023-04-17T19:10:12.576Z,81.79
2023-04-17T19:12:42.666Z,81.58
2023-04-17T19:15:12.454Z,81.64
2023-04-17T19:17:41.258Z,81.59
2023-04-17T19:20:10.968Z,81.94
2023-04-17T19:22:38.905Z,82.46
2023-04-17T19:25:08.274Z,83.10
2023-04-17T19:27:36.233Z,82.54
2023-04-17T19:30:07.887Z,83.32
2023-04-17T19:32:36.593Z,83.77
2023-04-17T19:35:06.195Z,84.00
2023-04-17T19:37:34.102Z,84.18
2023-04-17T19:40:08.621Z,85.01
2023-04-17T19:42:39.232Z,84.88
2023-04-17T19:45:09.118Z,85.23
2023-04-17T19:47:41.051Z,85.82
2023-04-17T19:50:11.018Z,85.45
2023-04-17T19:52:39.000Z,85.97
2023-04-17T19:55:09.535Z,85.71
2023-04-17T19:57:39.395Z,85.67
2023-04-17T20:00:10.244Z,85.44
2023-04-17T20:02:38.562Z,85.54
2023-04-17T20:05:07.372Z,85.64
2023-04-17T20:07:35.483Z,85.37
2023-04-17T20:10:03.674Z,86.02
2023-04-17T20:12:33.250Z,86.51
2023-04-17T20:15:01.060Z,87.06
2023-04-17T20:17:28.894Z,88.17
2023-04-17T20:19:56.781Z,88.59
2023-04-17T20:22:24.511Z,89.07
2023-04-17T20:24:54.016Z,89.46
2023-04-17T20:27:21.831Z,89.88
2023-04-17T20:29:49.569Z,90.84
2023-04-17T20:32:20.497Z,91.24
2023-04-17T20:34:48.258Z,91.88
2023-04-17T20:37:16.073Z,92.13
2023-04-17T20:39:45.685Z,92.39
2023-04-17T20:42:13.475Z,92.83
2023-04-17T20:44:41.241Z,92.70
2023-04-17T20:47:11.106Z,93.18
2023-04-17T20:49:38.905Z,93.31
2023-04-17T20:52:07.577Z,93.45
2023-04-17T20:54:36.306Z,93.50
2023-04-17T20:57:05.883Z,94.70
2023-04-17T20:59:33.707Z,94.16
2023-04-17T21:02:01.494Z,94.15
2023-04-17T21:04:29.410Z,94.78
2023-04-17T21:06:57.275Z,95.26
2023-04-17T21:09:26.506Z,95.38
2023-04-17T21:11:55.631Z,95.81
2023-04-17T21:14:23.703Z,96.42
2023-04-17T21:16:54.589Z,96.00
2023-04-17T21:19:24.398Z,96.69
2023-04-17T21:21:53.212Z,97.03
2023-04-17T21:24:21.884Z,97.35
2023-04-17T21:26:49.640Z,97.40
2023-04-17T21:29:17.672Z,97.07
2023-04-17T21:31:45.605Z,97.82
2023-04-17T21:34:13.595Z,97.33
2023-04-17T21:36:41.745Z,96.79
2023-04-17T21:39:09.883Z,96.32
2023-04-17T21:41:38.875Z,96.78
2023-04-17T21:44:06.760Z,96.84
2023-04-17T21:46:37.849Z,96.90
2023-04-17T21:49:06.600Z,97.06
2023-04-17T21:51:35.330Z,97.17
2023-04-17T21:54:04.456Z,97.19
2023-04-17T21:56:33.249Z,96.95
2023-04-17T21:59:01.241Z,97.56
2023-04-17T22:01:31.124Z,97.67
2023-04-17T22:03:58.891Z,98.72
2023-04-17T22:06:27.767Z,99.46
2023-04-17T22:08:58.274Z,99.85
2023-04-17T22:11:27.775Z,100.00
2023-04-17T22:13:55.541Z,100.00
2023-04-17T22:16:23.382Z,100.00
2023-04-17T22:18:51.273Z,100.00
2023-04-17T22:21:19.097Z,100.00
2023-04-17T22:23:48.689Z,100.00
2023-04-17T22:26:16.447Z,100.00
2023-04-17T22:28:44.294Z,100.00
2023-04-17T22:31:15.875Z,100.00
2023-04-17T22:33:44.489Z,100.00
2023-04-17T22:36:14.284Z,100.00
2023-04-17T22:38:42.125Z,100.00
2023-04-17T22:41:10.208Z,100.00
2023-04-17T22:43:38.037Z,100.00
2023-04-17T22:46:06.654Z,100.00
2023-04-17T22:48:35.433Z,100.00
2023-04-17T22:51:04.362Z,100.00
2023-04-17T22:53:33.482Z,100.00
2023-04-17T22:56:03.902Z,100.00
2023-04-17T22:58:34.111Z,100.00
2023-04-17T23:01:03.931Z,100.00
2023-04-17T23:03:31.832Z,100.00
2023-04-17T23:05:59.627Z,100.00
2023-04-17T23:08:31.270Z,100.00
2023-04-17T23:11:04.774Z,100.00
2023-04-17T23:13:34.273Z,100.00
2023-04-17T23:16:03.061Z,100.00
2023-04-17T23:18:32.233Z,100.00
2023-04-17T23:21:00.120Z,100.00
2023-04-17T23:23:28.687Z,100.00
2023-04-17T23:25:56.493Z,100.00
2023-04-17T23:28:30.531Z,100.00
2023-04-17T23:31:03.525Z,100.00
2023-04-17T23:33:31.882Z,100.00
2023-04-17T23:36:00.001Z,100.00
2023-04-17T23:38:27.777Z,100.00
2023-04-17T23:40:55.775Z,100.00
2023-04-17T23:43:24.442Z,100.00
2023-04-17T23:45:54.054Z,100.00
2023-04-17T23:48:21.955Z,100.00
2023-04-17T23:50:49.851Z,100.00
2023-04-17T23:53:17.674Z,100.00
2023-04-17T23:55:45.587Z,100.00
2023-04-17T23:58:13.333Z,100.00
